sensor_id;sensor_type;location;lat;lon;timestamp;temperature;humidity
3492;DHT22;1760;52.480;13.422;2024-02-21T14:07:01;12.30;99.90
3492;DHT22;1760;52.480;13.422;2024-02-21T14:09:28;12.30;99.90
3492;DHT22;1760;52.480;13.422;2024-02-21T14:12:16;12.30;99.90
3492;DHT22;1760;52.480;13.422;2024-02-21T14:14:46;12.30;99.90
3492;DHT22;1760;52.480;13.422;2024-02-21T14:17:15;12.30;99.90
3492;DHT22;1760;52.480;13.422;2024-02-21T14:19:42;12.30;99.90
3492;DHT22;1760;52.480;13.422;2024-02-21T14:22:11;12.30;99.90
3492;DHT22;1760;52.480;13.422;2024-02-21T14:24:38;12.30;99.90
3492;DHT22;1760;52.480;13.422;2024-02-21T14:27:05;12.30;99.90
3492;DHT22;1760;52.480;13.422;2024-02-21T14:32:10;12.40;99.90
3492;DHT22;1760;52.480;13.422;2024-02-21T14:34:39;12.40;99.90
3492;DHT22;1760;52.480;13.422;2024-02-21T14:37:06;12.50;99.90
3492;DHT22;1760;52.480;13.422;2024-02-21T14:39:35;12.50;99.90
3492;DHT22;1760;52.480;13.422;2024-02-21T14:42:02;12.60;99.90
3492;DHT22;1760;52.480;13.422;2024-02-21T14:44:29;12.40;99.90
3492;DHT22;1760;52.480;13.422;2024-02-21T14:46:55;12.40;99.90
3492;DHT22;1760;52.480;13.422;2024-02-21T14:49:22;12.50;99.90
3492;DHT22;1760;52.480;13.422;2024-02-21T14:51:50;12.50;99.90
3492;DHT22;1760;52.480;13.422;2024-02-21T14:54:17;12.40;99.90
3492;DHT22;1760;52.480;13.422;2024-02-21T14:56:46;12.30;99.90
3492;DHT22;1760;52.480;13.422;2024-02-21T14:59:13;12.30;99.90
3492;DHT22;1760;52.480;13.422;2024-02-21T15:01:43;12.30;99.90
3492;DHT22;1760;52.480;13.422;2024-02-21T15:04:09;12.30;99.90
3492;DHT22;1760;52.480;13.422;2024-02-21T15:06:36;12.20;99.90
3492;DHT22;1760;52.480;13.422;2024-02-21T15:09:05;12.20;99.90
3492;DHT22;1760;52.480;13.422;2024-02-21T15:11:32;12.10;99.90
3492;DHT22;1760;52.480;13.422;2024-02-21T15:14:01;12.20;99.90
3492;DHT22;1760;52.480;13.422;2024-02-21T15:16:28;12.10;99.90
3492;DHT22;1760;52.480;13.422;2024-02-21T15:18:55;12.10;99.90
3492;DHT22;1760;52.480;13.422;2024-02-21T15:21:22;12.10;99.90
3492;DHT22;1760;52.480;13.422;2024-02-21T15:23:49;12.10;99.90
3492;DHT22;1760;52.480;13.422;2024-02-21T15:26:16;12.10;99.90
3492;DHT22;1760;52.480;13.422;2024-02-21T15:28:43;12.10;99.90
3492;DHT22;1760;52.480;13.422;2024-02-21T15:31:20;12.10;99.90
3492;DHT22;1760;52.480;13.422;2024-02-21T15:33:49;12.10;99.90
3492;DHT22;1760;52.480;13.422;2024-02-21T15:36:16;12.00;99.90
3492;DHT22;1760;52.480;13.422;2024-02-21T15:38:43;11.90;99.90
3492;DHT22;1760;52.480;13.422;2024-02-21T15:41:11;11.80;99.90
3492;DHT22;1760;52.480;13.422;2024-02-21T15:43:39;11.80;99.90
3492;DHT22;1760;52.480;13.422;2024-02-21T15:46:06;11.70;99.90
3492;DHT22;1760;52.480;13.422;2024-02-21T15:48:34;11.70;99.90
3492;DHT22;1760;52.480;13.422;2024-02-21T15:51:01;11.60;99.90
3492;DHT22;1760;52.480;13.422;2024-02-21T15:53:29;11.70;99.90
3492;DHT22;1760;52.480;13.422;2024-02-21T15:55:56;11.60;99.90
3492;DHT22;1760;52.480;13.422;2024-02-21T15:58:23;11.60;99.90
3492;DHT22;1760;52.480;13.422;2024-02-21T16:00:50;11.50;99.90
3492;DHT22;1760;52.480;13.422;2024-02-21T16:03:18;11.50;99.90
3492;DHT22;1760;52.480;13.422;2024-02-21T16:05:46;11.50;99.90
3492;DHT22;1760;52.480;13.422;2024-02-21T16:08:13;11.50;99.90
3492;DHT22;1760;52.480;13.422;2024-02-21T16:10:43;11.40;99.90
3492;DHT22;1760;52.480;13.422;2024-02-21T16:13:10;11.40;99.90
3492;DHT22;1760;52.480;13.422;2024-02-21T16:15:37;11.30;99.90
3492;DHT22;1760;52.480;13.422;2024-02-21T16:18:04;11.30;99.90
3492;DHT22;1760;52.480;13.422;2024-02-21T16:20:32;11.20;99.90
3492;DHT22;1760;52.480;13.422;2024-02-21T16:23:00;11.20;99.90
3492;DHT22;1760;52.480;13.422;2024-02-21T16:25:28;11.20;99.90
3492;DHT22;1760;52.480;13.422;2024-02-21T16:27:55;11.10;99.90
3492;DHT22;1760;52.480;13.422;2024-02-21T16:30:23;11.10;99.90
3492;DHT22;1760;52.480;13.422;2024-02-21T16:32:50;11.10;99.90
3492;DHT22;1760;52.480;13.422;2024-02-21T16:35:17;11.00;99.90
3492;DHT22;1760;52.480;13.422;2024-02-21T16:37:45;11.00;99.90
3492;DHT22;1760;52.480;13.422;2024-02-21T16:40:14;10.90;99.90
3492;DHT22;1760;52.480;13.422;2024-02-21T16:42:44;10.90;99.90
3492;DHT22;1760;52.480;13.422;2024-02-21T16:45:11;10.80;99.90
3492;DHT22;1760;52.480;13.422;2024-02-21T16:47:37;10.80;99.90
3492;DHT22;1760;52.480;13.422;2024-02-21T16:50:05;10.70;99.90
3492;DHT22;1760;52.480;13.422;2024-02-21T16:52:32;10.70;99.90
3492;DHT22;1760;52.480;13.422;2024-02-21T16:54:59;10.70;99.90
3492;DHT22;1760;52.480;13.422;2024-02-21T16:57:27;10.70;99.90
3492;DHT22;1760;52.480;13.422;2024-02-21T16:59:54;10.60;99.90
3492;DHT22;1760;52.480;13.422;2024-02-21T17:02:21;10.60;99.90
3492;DHT22;1760;52.480;13.422;2024-02-21T17:04:50;10.50;99.90
3492;DHT22;1760;52.480;13.422;2024-02-21T17:07:17;10.50;99.90
3492;DHT22;1760;52.480;13.422;2024-02-21T17:09:44;10.40;99.90
3492;DHT22;1760;52.480;13.422;2024-02-21T17:12:11;10.40;99.90
3492;DHT22;1760;52.480;13.422;2024-02-21T17:14:39;10.30;99.90
3492;DHT22;1760;52.480;13.422;2024-02-21T17:17:06;10.30;99.90
3492;DHT22;1760;52.480;13.422;2024-02-21T17:19:33;10.20;99.90
3492;DHT22;1760;52.480;13.422;2024-02-21T17:22:01;10.20;99.90
3492;DHT22;1760;52.480;13.422;2024-02-21T17:24:28;10.20;99.90
3492;DHT22;1760;52.480;13.422;2024-02-21T17:26:54;10.20;99.90
3492;DHT22;1760;52.480;13.422;2024-02-21T17:29:21;10.20;99.90
3492;DHT22;1760;52.480;13.422;2024-02-21T17:31:50;10.10;99.90
3492;DHT22;1760;52.480;13.422;2024-02-21T17:34:17;10.10;99.90
3492;DHT22;1760;52.480;13.422;2024-02-21T17:36:46;10.10;99.90
3492;DHT22;1760;52.480;13.422;2024-02-21T17:39:14;10.10;99.90
3492;DHT22;1760;52.480;13.422;2024-02-21T17:41:43;10.00;99.90
3492;DHT22;1760;52.480;13.422;2024-02-21T17:44:10;9.90;99.90
3492;DHT22;1760;52.480;13.422;2024-02-21T17:46:40;9.90;99.90
3492;DHT22;1760;52.480;13.422;2024-02-21T17:49:10;9.90;99.90
3492;DHT22;1760;52.480;13.422;2024-02-21T17:51:37;9.90;99.90
3492;DHT22;1760;52.480;13.422;2024-02-21T17:54:04;10.00;99.90
3492;DHT22;1760;52.480;13.422;2024-02-21T17:56:30;9.90;99.90
3492;DHT22;1760;52.480;13.422;2024-02-21T17:58:57;9.90;99.90
3492;DHT22;1760;52.480;13.422;2024-02-21T18:01:24;9.90;99.90
3492;DHT22;1760;52.480;13.422;2024-02-21T18:03:51;9.80;99.90
3492;DHT22;1760;52.480;13.422;2024-02-21T18:06:20;9.80;99.90
3492;DHT22;1760;52.480;13.422;2024-02-21T18:08:46;9.80;99.90
3492;DHT22;1760;52.480;13.422;2024-02-21T18:11:13;9.80;99.90
3492;DHT22;1760;52.480;13.422;2024-02-21T18:13:40;9.80;99.90
3492;DHT22;1760;52.480;13.422;2024-02-21T18:16:07;9.70;99.90
3492;DHT22;1760;52.480;13.422;2024-02-21T18:18:34;9.70;99.90
3492;DHT22;1760;52.480;13.422;2024-02-21T18:21:01;9.70;99.90
3492;DHT22;1760;52.480;13.422;2024-02-21T18:23:29;9.60;99.90
3492;DHT22;1760;52.480;13.422;2024-02-21T18:25:56;9.60;99.90
3492;DHT22;1760;52.480;13.422;2024-02-21T18:28:24;9.60;99.90
3492;DHT22;1760;52.480;13.422;2024-02-21T18:30:51;9.50;99.90
3492;DHT22;1760;52.480;13.422;2024-02-21T18:33:18;9.50;99.90
3492;DHT22;1760;52.480;13.422;2024-02-21T18:35:45;9.50;99.90
3492;DHT22;1760;52.480;13.422;2024-02-21T18:38:12;9.50;99.90
3492;DHT22;1760;52.480;13.422;2024-02-21T18:40:40;9.50;99.90
3492;DHT22;1760;52.480;13.422;2024-02-21T18:43:07;9.50;99.90
3492;DHT22;1760;52.480;13.422;2024-02-21T18:45:34;9.50;99.90
3492;DHT22;1760;52.480;13.422;2024-02-21T18:48:01;9.40;99.90
3492;DHT22;1760;52.480;13.422;2024-02-21T18:50:28;9.40;99.90
3492;DHT22;1760;52.480;13.422;2024-02-21T18:52:54;9.40;99.90
3492;DHT22;1760;52.480;13.422;2024-02-21T18:55:25;9.40;99.90
3492;DHT22;1760;52.480;13.422;2024-02-21T18:57:53;9.40;99.90
3492;DHT22;1760;52.480;13.422;2024-02-21T19:00:20;9.40;99.90
3492;DHT22;1760;52.480;13.422;2024-02-21T19:02:49;9.40;99.90
3492;DHT22;1760;52.480;13.422;2024-02-21T19:05:16;9.40;99.90
3492;DHT22;1760;52.480;13.422;2024-02-21T19:07:47;9.40;99.90
3492;DHT22;1760;52.480;13.422;2024-02-21T19:10:14;9.40;99.90
3492;DHT22;1760;52.480;13.422;2024-02-21T19:12:40;9.40;99.90
3492;DHT22;1760;52.480;13.422;2024-02-21T19:15:09;9.40;99.90
3492;DHT22;1760;52.480;13.422;2024-02-21T19:17:36;9.40;99.90
3492;DHT22;1760;52.480;13.422;2024-02-21T19:20:06;9.50;99.90
3492;DHT22;1760;52.480;13.422;2024-02-21T19:22:35;9.40;99.90
3492;DHT22;1760;52.480;13.422;2024-02-21T19:25:02;9.40;99.90
3492;DHT22;1760;52.480;13.422;2024-02-21T19:27:32;9.40;99.90
3492;DHT22;1760;52.480;13.422;2024-02-21T19:29:59;9.40;99.90
3492;DHT22;1760;52.480;13.422;2024-02-21T19:32:29;9.40;99.90
3492;DHT22;1760;52.480;13.422;2024-02-21T19:34:56;9.40;99.90
3492;DHT22;1760;52.480;13.422;2024-02-21T19:37:22;9.40;99.90
3492;DHT22;1760;52.480;13.422;2024-02-21T19:39:49;9.40;99.90
3492;DHT22;1760;52.480;13.422;2024-02-21T19:42:16;9.30;99.90
3492;DHT22;1760;52.480;13.422;2024-02-21T19:44:43;9.30;99.90
3492;DHT22;1760;52.480;13.422;2024-02-21T19:47:10;9.30;99.90
3492;DHT22;1760;52.480;13.422;2024-02-21T19:49:40;9.30;99.90
3492;DHT22;1760;52.480;13.422;2024-02-21T19:52:07;9.30;99.90
3492;DHT22;1760;52.480;13.422;2024-02-21T19:54:34;9.30;99.90
3492;DHT22;1760;52.480;13.422;2024-02-21T19:57:00;9.30;99.90
3492;DHT22;1760;52.480;13.422;2024-02-21T19:59:28;9.30;99.90
3492;DHT22;1760;52.480;13.422;2024-02-21T20:01:55;9.30;99.90
3492;DHT22;1760;52.480;13.422;2024-02-21T20:04:23;9.30;99.90
3492;DHT22;1760;52.480;13.422;2024-02-21T20:06:51;9.40;99.90
3492;DHT22;1760;52.480;13.422;2024-02-21T20:09:18;9.40;99.90
3492;DHT22;1760;52.480;13.422;2024-02-21T20:11:45;9.40;99.90
3492;DHT22;1760;52.480;13.422;2024-02-21T20:14:12;9.50;99.90
3492;DHT22;1760;52.480;13.422;2024-02-21T20:16:39;9.40;99.90
3492;DHT22;1760;52.480;13.422;2024-02-21T20:19:06;9.40;99.90
3492;DHT22;1760;52.480;13.422;2024-02-21T20:21:35;9.30;99.90
3492;DHT22;1760;52.480;13.422;2024-02-21T20:24:06;9.30;99.90
3492;DHT22;1760;52.480;13.422;2024-02-21T20:26:33;9.30;99.90
3492;DHT22;1760;52.480;13.422;2024-02-21T20:29:06;9.40;99.90
3492;DHT22;1760;52.480;13.422;2024-02-21T20:31:39;9.30;99.90
3492;DHT22;1760;52.480;13.422;2024-02-21T20:34:07;9.30;99.90
3492;DHT22;1760;52.480;13.422;2024-02-21T20:36:34;9.40;99.90
3492;DHT22;1760;52.480;13.422;2024-02-21T20:39:01;9.40;99.90
3492;DHT22;1760;52.480;13.422;2024-02-21T20:41:30;9.50;99.90
3492;DHT22;1760;52.480;13.422;2024-02-21T20:43:57;9.40;99.90
3492;DHT22;1760;52.480;13.422;2024-02-21T20:46:24;9.40;99.90
3492;DHT22;1760;52.480;13.422;2024-02-21T20:48:51;9.40;99.90
3492;DHT22;1760;52.480;13.422;2024-02-21T20:51:17;9.50;99.90
3492;DHT22;1760;52.480;13.422;2024-02-21T20:53:44;9.50;99.90
3492;DHT22;1760;52.480;13.422;2024-02-21T20:56:11;9.50;99.90
3492;DHT22;1760;52.480;13.422;2024-02-21T20:58:39;9.50;99.90
3492;DHT22;1760;52.480;13.422;2024-02-21T21:01:07;9.50;99.90
3492;DHT22;1760;52.480;13.422;2024-02-21T21:03:34;9.40;99.90
3492;DHT22;1760;52.480;13.422;2024-02-21T21:06:01;9.40;99.90
3492;DHT22;1760;52.480;13.422;2024-02-21T21:08:28;9.40;99.90
3492;DHT22;1760;52.480;13.422;2024-02-21T21:10:55;9.50;99.90
3492;DHT22;1760;52.480;13.422;2024-02-21T21:13:22;9.50;99.90
3492;DHT22;1760;52.480;13.422;2024-02-21T21:15:50;9.60;99.90
3492;DHT22;1760;52.480;13.422;2024-02-21T21:18:18;9.60;99.90
3492;DHT22;1760;52.480;13.422;2024-02-21T21:20:45;9.60;99.90
3492;DHT22;1760;52.480;13.422;2024-02-21T21:23:11;9.60;99.90
3492;DHT22;1760;52.480;13.422;2024-02-21T21:25:39;9.60;99.90
3492;DHT22;1760;52.480;13.422;2024-02-21T21:28:06;9.60;99.90
3492;DHT22;1760;52.480;13.422;2024-02-21T21:30:34;9.60;99.90
3492;DHT22;1760;52.480;13.422;2024-02-21T21:33:02;9.60;99.90
3492;DHT22;1760;52.480;13.422;2024-02-21T21:35:29;9.60;99.90
3492;DHT22;1760;52.480;13.422;2024-02-21T21:37:56;9.60;99.90
3492;DHT22;1760;52.480;13.422;2024-02-21T21:40:25;9.60;99.90
3492;DHT22;1760;52.480;13.422;2024-02-21T21:42:54;9.70;99.90
3492;DHT22;1760;52.480;13.422;2024-02-21T21:45:21;9.70;99.90
3492;DHT22;1760;52.480;13.422;2024-02-21T21:47:48;9.70;99.90
3492;DHT22;1760;52.480;13.422;2024-02-21T21:50:17;9.70;99.90
3492;DHT22;1760;52.480;13.422;2024-02-21T21:52:44;9.70;99.90
3492;DHT22;1760;52.480;13.422;2024-02-21T21:55:11;9.70;99.90
3492;DHT22;1760;52.480;13.422;2024-02-21T21:57:38;9.70;99.90
3492;DHT22;1760;52.480;13.422;2024-02-21T22:00:07;9.70;99.90
3492;DHT22;1760;52.480;13.422;2024-02-21T22:02:35;9.80;99.90
3492;DHT22;1760;52.480;13.422;2024-02-21T22:05:02;9.80;99.90
3492;DHT22;1760;52.480;13.422;2024-02-21T22:07:30;9.80;99.90
3492;DHT22;1760;52.480;13.422;2024-02-21T22:09:57;9.80;99.90
3492;DHT22;1760;52.480;13.422;2024-02-21T22:12:24;9.80;99.90
3492;DHT22;1760;52.480;13.422;2024-02-21T22:14:51;9.80;99.90
3492;DHT22;1760;52.480;13.422;2024-02-21T22:17:18;9.80;99.90
3492;DHT22;1760;52.480;13.422;2024-02-21T22:19:45;9.90;99.90
3492;DHT22;1760;52.480;13.422;2024-02-21T22:22:11;9.90;99.90
3492;DHT22;1760;52.480;13.422;2024-02-21T22:24:40;9.90;99.90
3492;DHT22;1760;52.480;13.422;2024-02-21T22:27:10;9.90;99.90
3492;DHT22;1760;52.480;13.422;2024-02-21T22:29:37;10.00;99.90
3492;DHT22;1760;52.480;13.422;2024-02-21T22:32:05;10.00;99.90
3492;DHT22;1760;52.480;13.422;2024-02-21T22:34:34;10.00;99.90
3492;DHT22;1760;52.480;13.422;2024-02-21T22:37:01;10.00;99.90
3492;DHT22;1760;52.480;13.422;2024-02-21T22:39:28;10.00;99.90
3492;DHT22;1760;52.480;13.422;2024-02-21T22:41:57;10.00;99.90
3492;DHT22;1760;52.480;13.422;2024-02-21T22:44:24;10.00;99.90
3492;DHT22;1760;52.480;13.422;2024-02-21T22:46:51;10.00;99.90
3492;DHT22;1760;52.480;13.422;2024-02-21T22:49:18;10.00;99.90
3492;DHT22;1760;52.480;13.422;2024-02-21T22:51:44;10.00;99.90
3492;DHT22;1760;52.480;13.422;2024-02-21T22:54:11;10.00;99.90
3492;DHT22;1760;52.480;13.422;2024-02-21T22:56:41;10.30;99.90
3492;DHT22;1760;52.480;13.422;2024-02-21T22:59:09;10.50;99.90
3492;DHT22;1760;52.480;13.422;2024-02-21T23:01:37;10.40;99.90
3492;DHT22;1760;52.480;13.422;2024-02-21T23:04:04;10.30;99.90
3492;DHT22;1760;52.480;13.422;2024-02-21T23:06:32;10.30;99.90
3492;DHT22;1760;52.480;13.422;2024-02-21T23:08:59;10.20;99.90
3492;DHT22;1760;52.480;13.422;2024-02-21T23:11:29;10.10;99.90
3492;DHT22;1760;52.480;13.422;2024-02-21T23:13:56;10.10;99.90
3492;DHT22;1760;52.480;13.422;2024-02-21T23:16:24;10.10;99.90
3492;DHT22;1760;52.480;13.422;2024-02-21T23:18:53;10.10;99.90
3492;DHT22;1760;52.480;13.422;2024-02-21T23:21:20;10.10;99.90
3492;DHT22;1760;52.480;13.422;2024-02-21T23:23:47;10.10;99.90
3492;DHT22;1760;52.480;13.422;2024-02-21T23:26:14;10.10;99.90
3492;DHT22;1760;52.480;13.422;2024-02-21T23:28:41;10.00;99.90
3492;DHT22;1760;52.480;13.422;2024-02-21T23:31:09;10.00;99.90
3492;DHT22;1760;52.480;13.422;2024-02-21T23:33:38;10.00;99.90
3492;DHT22;1760;52.480;13.422;2024-02-21T23:36:05;9.90;99.90
3492;DHT22;1760;52.480;13.422;2024-02-21T23:38:32;9.90;99.90
3492;DHT22;1760;52.480;13.422;2024-02-21T23:40:59;9.90;99.90
3492;DHT22;1760;52.480;13.422;2024-02-21T23:43:26;9.90;99.90
3492;DHT22;1760;52.480;13.422;2024-02-21T23:45:53;9.90;99.90
3492;DHT22;1760;52.480;13.422;2024-02-21T23:48:21;9.90;99.90
3492;DHT22;1760;52.480;13.422;2024-02-21T23:50:50;9.90;99.90
3492;DHT22;1760;52.480;13.422;2024-02-21T23:53:17;9.90;99.90
3492;DHT22;1760;52.480;13.422;2024-02-21T23:55:43;9.90;99.90
3492;DHT22;1760;52.480;13.422;2024-02-21T23:58:10;9.90;99.90
